sensor_id;sensor_type;location;lat;lon;timestamp;P1;durP1;ratioP1;P2;durP2;ratioP2
54745;SDS011;40640;48.130;11.356;2023-02-13T00:00:46;32.35;;;12.68;;
54745;SDS011;40640;48.130;11.356;2023-02-13T00:04:49;29.02;;;11.38;;
54745;SDS011;40640;48.130;11.356;2023-02-13T00:08:52;36.25;;;13.88;;
54745;SDS011;40640;48.130;11.356;2023-02-13T00:12:56;30.27;;;12.90;;
54745;SDS011;40640;48.130;11.356;2023-02-13T00:16:59;32.47;;;13.32;;
54745;SDS011;40640;48.130;11.356;2023-02-13T00:21:02;31.90;;;14.13;;
54745;SDS011;40640;48.130;11.356;2023-02-13T00:25:07;35.22;;;13.15;;
54745;SDS011;40640;48.130;11.356;2023-02-13T00:29:15;42.00;;;15.23;;
54745;SDS011;40640;48.130;11.356;2023-02-13T00:33:18;37.05;;;14.38;;
54745;SDS011;40640;48.130;11.356;2023-02-13T00:37:21;35.53;;;14.90;;
54745;SDS011;40640;48.130;11.356;2023-02-13T00:41:25;48.70;;;15.52;;
54745;SDS011;40640;48.130;11.356;2023-02-13T00:45:29;44.50;;;14.13;;
54745;SDS011;40640;48.130;11.356;2023-02-13T00:49:32;40.65;;;14.15;;
54745;SDS011;40640;48.130;11.356;2023-02-13T00:53:36;47.03;;;13.10;;
54745;SDS011;40640;48.130;11.356;2023-02-13T00:57:39;53.47;;;14.00;;
54745;SDS011;40640;48.130;11.356;2023-02-13T01:01:45;53.22;;;15.13;;
54745;SDS011;40640;48.130;11.356;2023-02-13T01:05:49;45.83;;;16.08;;
54745;SDS011;40640;48.130;11.356;2023-02-13T01:09:52;46.53;;;16.85;;
54745;SDS011;40640;48.130;11.356;2023-02-13T01:13:55;42.22;;;15.75;;
54745;SDS011;40640;48.130;11.356;2023-02-13T01:17:59;40.35;;;15.35;;
54745;SDS011;40640;48.130;11.356;2023-02-13T01:22:02;45.72;;;14.75;;
54745;SDS011;40640;48.130;11.356;2023-02-13T01:26:05;36.33;;;14.60;;
54745;SDS011;40640;48.130;11.356;2023-02-13T01:30:11;53.88;;;17.38;;
54745;SDS011;40640;48.130;11.356;2023-02-13T01:34:16;45.80;;;16.00;;
54745;SDS011;40640;48.130;11.356;2023-02-13T01:38:19;49.92;;;17.95;;
54745;SDS011;40640;48.130;11.356;2023-02-13T01:42:23;44.28;;;18.13;;
54745;SDS011;40640;48.130;11.356;2023-02-13T01:46:28;45.35;;;17.65;;
54745;SDS011;40640;48.130;11.356;2023-02-13T01:50:38;49.05;;;16.77;;
54745;SDS011;40640;48.130;11.356;2023-02-13T01:54:45;51.45;;;16.40;;
54745;SDS011;40640;48.130;11.356;2023-02-13T01:58:51;45.22;;;17.52;;
54745;SDS011;40640;48.130;11.356;2023-02-13T02:02:57;41.55;;;15.45;;
54745;SDS011;40640;48.130;11.356;2023-02-13T02:07:09;43.22;;;17.42;;
54745;SDS011;40640;48.130;11.356;2023-02-13T02:11:16;48.22;;;17.02;;
54745;SDS011;40640;48.130;11.356;2023-02-13T02:15:25;42.75;;;17.38;;
54745;SDS011;40640;48.130;11.356;2023-02-13T02:19:42;47.08;;;18.45;;
54745;SDS011;40640;48.130;11.356;2023-02-13T02:24:00;47.75;;;17.85;;
54745;SDS011;40640;48.130;11.356;2023-02-13T02:33:10;51.55;;;18.60;;
54745;SDS011;40640;48.130;11.356;2023-02-13T02:37:29;55.75;;;19.92;;
54745;SDS011;40640;48.130;11.356;2023-02-13T02:41:45;51.42;;;18.30;;
54745;SDS011;40640;48.130;11.356;2023-02-13T02:46:01;59.45;;;18.88;;
54745;SDS011;40640;48.130;11.356;2023-02-13T02:50:15;61.70;;;20.15;;
54745;SDS011;40640;48.130;11.356;2023-02-13T02:54:26;55.65;;;18.27;;
54745;SDS011;40640;48.130;11.356;2023-02-13T02:58:52;54.95;;;19.98;;
54745;SDS011;40640;48.130;11.356;2023-02-13T03:03:18;47.63;;;17.77;;
54745;SDS011;40640;48.130;11.356;2023-02-13T03:07:41;47.50;;;18.42;;
54745;SDS011;40640;48.130;11.356;2023-02-13T03:11:47;48.90;;;16.80;;
54745;SDS011;40640;48.130;11.356;2023-02-13T03:16:10;42.03;;;16.88;;
54745;SDS011;40640;48.130;11.356;2023-02-13T03:25:13;37.55;;;16.20;;
54745;SDS011;40640;48.130;11.356;2023-02-13T03:29:38;42.50;;;17.58;;
54745;SDS011;40640;48.130;11.356;2023-02-13T03:34:05;43.17;;;15.77;;
54745;SDS011;40640;48.130;11.356;2023-02-13T03:38:13;43.70;;;17.88;;
54745;SDS011;40640;48.130;11.356;2023-02-13T03:42:22;43.05;;;15.88;;
54745;SDS011;40640;48.130;11.356;2023-02-13T03:46:32;47.25;;;17.15;;
54745;SDS011;40640;48.130;11.356;2023-02-13T03:50:38;43.63;;;16.50;;
54745;SDS011;40640;48.130;11.356;2023-02-13T03:54:45;44.22;;;16.30;;
54745;SDS011;40640;48.130;11.356;2023-02-13T03:59:12;49.80;;;18.15;;
54745;SDS011;40640;48.130;11.356;2023-02-13T04:03:23;49.55;;;18.20;;
54745;SDS011;40640;48.130;11.356;2023-02-13T04:07:30;51.42;;;17.50;;
54745;SDS011;40640;48.130;11.356;2023-02-13T04:11:34;45.95;;;17.63;;
54745;SDS011;40640;48.130;11.356;2023-02-13T04:15:42;36.03;;;16.58;;
54745;SDS011;40640;48.130;11.356;2023-02-13T04:19:50;28.83;;;12.70;;
54745;SDS011;40640;48.130;11.356;2023-02-13T04:23:53;29.10;;;13.63;;
54745;SDS011;40640;48.130;11.356;2023-02-13T04:27:56;31.08;;;13.52;;
54745;SDS011;40640;48.130;11.356;2023-02-13T04:32:00;25.50;;;12.88;;
54745;SDS011;40640;48.130;11.356;2023-02-13T04:36:03;24.83;;;12.48;;
54745;SDS011;40640;48.130;11.356;2023-02-13T04:40:06;30.17;;;14.10;;
54745;SDS011;40640;48.130;11.356;2023-02-13T04:44:10;28.98;;;13.00;;
54745;SDS011;40640;48.130;11.356;2023-02-13T04:48:14;30.58;;;14.48;;
54745;SDS011;40640;48.130;11.356;2023-02-13T04:52:17;32.13;;;15.10;;
54745;SDS011;40640;48.130;11.356;2023-02-13T04:56:20;32.85;;;15.73;;
54745;SDS011;40640;48.130;11.356;2023-02-13T05:00:23;36.13;;;16.00;;
54745;SDS011;40640;48.130;11.356;2023-02-13T05:04:28;41.70;;;16.75;;
54745;SDS011;40640;48.130;11.356;2023-02-13T05:08:31;36.13;;;16.05;;
54745;SDS011;40640;48.130;11.356;2023-02-13T05:12:34;32.22;;;15.82;;
54745;SDS011;40640;48.130;11.356;2023-02-13T05:16:37;35.72;;;16.13;;
54745;SDS011;40640;48.130;11.356;2023-02-13T05:20:41;31.73;;;15.30;;
54745;SDS011;40640;48.130;11.356;2023-02-13T05:24:44;36.08;;;16.55;;
54745;SDS011;40640;48.130;11.356;2023-02-13T05:28:46;35.88;;;15.20;;
54745;SDS011;40640;48.130;11.356;2023-02-13T05:33:06;42.70;;;17.88;;
54745;SDS011;40640;48.130;11.356;2023-02-13T05:37:10;44.08;;;18.77;;
54745;SDS011;40640;48.130;11.356;2023-02-13T05:41:13;37.20;;;16.13;;
54745;SDS011;40640;48.130;11.356;2023-02-13T05:45:16;45.65;;;18.13;;
54745;SDS011;40640;48.130;11.356;2023-02-13T05:49:19;42.75;;;18.20;;
54745;SDS011;40640;48.130;11.356;2023-02-13T05:53:24;42.25;;;17.35;;
54745;SDS011;40640;48.130;11.356;2023-02-13T05:57:27;41.38;;;18.38;;
54745;SDS011;40640;48.130;11.356;2023-02-13T06:01:30;44.42;;;18.42;;
54745;SDS011;40640;48.130;11.356;2023-02-13T06:05:33;37.45;;;17.85;;
54745;SDS011;40640;48.130;11.356;2023-02-13T06:09:37;36.85;;;16.85;;
54745;SDS011;40640;48.130;11.356;2023-02-13T06:13:39;45.78;;;17.95;;
54745;SDS011;40640;48.130;11.356;2023-02-13T06:17:42;43.72;;;18.80;;
54745;SDS011;40640;48.130;11.356;2023-02-13T06:21:45;40.83;;;16.55;;
54745;SDS011;40640;48.130;11.356;2023-02-13T06:25:49;38.90;;;17.17;;
54745;SDS011;40640;48.130;11.356;2023-02-13T06:29:52;34.97;;;15.82;;
54745;SDS011;40640;48.130;11.356;2023-02-13T06:33:55;33.92;;;16.50;;
54745;SDS011;40640;48.130;11.356;2023-02-13T06:37:58;44.00;;;17.38;;
54745;SDS011;40640;48.130;11.356;2023-02-13T06:42:02;43.00;;;17.25;;
54745;SDS011;40640;48.130;11.356;2023-02-13T06:46:05;46.75;;;18.02;;
54745;SDS011;40640;48.130;11.356;2023-02-13T06:50:08;37.63;;;17.42;;
54745;SDS011;40640;48.130;11.356;2023-02-13T06:54:12;40.30;;;17.80;;
54745;SDS011;40640;48.130;11.356;2023-02-13T06:58:16;40.75;;;16.60;;
54745;SDS011;40640;48.130;11.356;2023-02-13T07:02:20;40.40;;;16.63;;
54745;SDS011;40640;48.130;11.356;2023-02-13T07:06:22;41.08;;;18.08;;
54745;SDS011;40640;48.130;11.356;2023-02-13T07:10:25;39.45;;;17.65;;
54745;SDS011;40640;48.130;11.356;2023-02-13T07:14:31;41.47;;;17.75;;
54745;SDS011;40640;48.130;11.356;2023-02-13T07:18:34;39.97;;;18.15;;
54745;SDS011;40640;48.130;11.356;2023-02-13T07:22:38;34.47;;;16.77;;
54745;SDS011;40640;48.130;11.356;2023-02-13T07:26:41;40.33;;;18.13;;
54745;SDS011;40640;48.130;11.356;2023-02-13T07:30:45;34.78;;;16.90;;
54745;SDS011;40640;48.130;11.356;2023-02-13T07:34:48;44.33;;;17.52;;
54745;SDS011;40640;48.130;11.356;2023-02-13T07:39:02;37.20;;;16.98;;
54745;SDS011;40640;48.130;11.356;2023-02-13T07:43:05;37.88;;;16.15;;
54745;SDS011;40640;48.130;11.356;2023-02-13T07:47:09;32.88;;;16.02;;
54745;SDS011;40640;48.130;11.356;2023-02-13T07:51:12;30.70;;;15.30;;
54745;SDS011;40640;48.130;11.356;2023-02-13T07:55:15;36.50;;;16.35;;
54745;SDS011;40640;48.130;11.356;2023-02-13T07:59:18;36.47;;;16.25;;
54745;SDS011;40640;48.130;11.356;2023-02-13T08:03:22;36.75;;;17.23;;
54745;SDS011;40640;48.130;11.356;2023-02-13T08:07:25;36.28;;;18.00;;
54745;SDS011;40640;48.130;11.356;2023-02-13T08:11:29;38.20;;;17.15;;
54745;SDS011;40640;48.130;11.356;2023-02-13T08:15:51;40.67;;;17.25;;
54745;SDS011;40640;48.130;11.356;2023-02-13T08:19:55;33.70;;;15.45;;
54745;SDS011;40640;48.130;11.356;2023-02-13T08:23:59;34.40;;;17.02;;
54745;SDS011;40640;48.130;11.356;2023-02-13T08:28:01;41.28;;;18.38;;
54745;SDS011;40640;48.130;11.356;2023-02-13T08:32:04;33.33;;;15.82;;
54745;SDS011;40640;48.130;11.356;2023-02-13T08:36:09;34.30;;;16.42;;
54745;SDS011;40640;48.130;11.356;2023-02-13T08:40:12;39.90;;;19.33;;
54745;SDS011;40640;48.130;11.356;2023-02-13T08:44:15;37.72;;;17.45;;
54745;SDS011;40640;48.130;11.356;2023-02-13T08:48:18;35.03;;;17.50;;
54745;SDS011;40640;48.130;11.356;2023-02-13T08:52:22;38.33;;;18.05;;
54745;SDS011;40640;48.130;11.356;2023-02-13T08:56:25;35.10;;;16.35;;
54745;SDS011;40640;48.130;11.356;2023-02-13T09:00:28;35.80;;;17.50;;
54745;SDS011;40640;48.130;11.356;2023-02-13T09:04:31;32.80;;;15.57;;
54745;SDS011;40640;48.130;11.356;2023-02-13T09:08:36;29.45;;;15.05;;
54745;SDS011;40640;48.130;11.356;2023-02-13T09:12:39;31.17;;;15.55;;
54745;SDS011;40640;48.130;11.356;2023-02-13T09:16:42;35.63;;;16.35;;
54745;SDS011;40640;48.130;11.356;2023-02-13T09:20:44;33.80;;;16.10;;
54745;SDS011;40640;48.130;11.356;2023-02-13T09:24:49;35.55;;;17.23;;
54745;SDS011;40640;48.130;11.356;2023-02-13T09:28:51;36.50;;;16.50;;
54745;SDS011;40640;48.130;11.356;2023-02-13T09:32:54;37.58;;;16.65;;
54745;SDS011;40640;48.130;11.356;2023-02-13T09:36:57;38.75;;;17.52;;
54745;SDS011;40640;48.130;11.356;2023-02-13T09:41:03;33.15;;;16.88;;
54745;SDS011;40640;48.130;11.356;2023-02-13T09:45:09;44.05;;;18.02;;
54745;SDS011;40640;48.130;11.356;2023-02-13T09:49:15;37.95;;;17.92;;
54745;SDS011;40640;48.130;11.356;2023-02-13T09:53:22;40.20;;;19.40;;
54745;SDS011;40640;48.130;11.356;2023-02-13T09:57:28;38.25;;;18.40;;
54745;SDS011;40640;48.130;11.356;2023-02-13T10:01:35;42.03;;;19.50;;
54745;SDS011;40640;48.130;11.356;2023-02-13T10:05:45;39.55;;;19.75;;
54745;SDS011;40640;48.130;11.356;2023-02-13T10:09:56;36.97;;;18.40;;
54745;SDS011;40640;48.130;11.356;2023-02-13T10:14:06;32.13;;;16.98;;
54745;SDS011;40640;48.130;11.356;2023-02-13T10:18:15;30.73;;;16.65;;
54745;SDS011;40640;48.130;11.356;2023-02-13T10:22:22;32.83;;;15.55;;
54745;SDS011;40640;48.130;11.356;2023-02-13T10:26:31;33.83;;;16.92;;
54745;SDS011;40640;48.130;11.356;2023-02-13T10:30:47;34.20;;;17.63;;
54745;SDS011;40640;48.130;11.356;2023-02-13T10:34:53;28.23;;;15.68;;
54745;SDS011;40640;48.130;11.356;2023-02-13T10:38:59;31.00;;;16.33;;
54745;SDS011;40640;48.130;11.356;2023-02-13T10:43:05;32.67;;;15.38;;
54745;SDS011;40640;48.130;11.356;2023-02-13T10:47:15;28.75;;;14.75;;
54745;SDS011;40640;48.130;11.356;2023-02-13T10:51:29;29.35;;;15.68;;
54745;SDS011;40640;48.130;11.356;2023-02-13T10:55:54;27.42;;;14.52;;
54745;SDS011;40640;48.130;11.356;2023-02-13T11:00:09;35.65;;;15.25;;
54745;SDS011;40640;48.130;11.356;2023-02-13T11:04:20;30.80;;;14.73;;
54745;SDS011;40640;48.130;11.356;2023-02-13T11:08:30;28.15;;;14.70;;
54745;SDS011;40640;48.130;11.356;2023-02-13T11:12:35;27.50;;;14.80;;
54745;SDS011;40640;48.130;11.356;2023-02-13T11:16:43;29.13;;;15.13;;
54745;SDS011;40640;48.130;11.356;2023-02-13T11:20:59;36.03;;;16.95;;
54745;SDS011;40640;48.130;11.356;2023-02-13T11:25:16;31.63;;;16.70;;
54745;SDS011;40640;48.130;11.356;2023-02-13T11:29:21;27.83;;;14.95;;
54745;SDS011;40640;48.130;11.356;2023-02-13T11:33:27;29.83;;;16.17;;
54745;SDS011;40640;48.130;11.356;2023-02-13T11:37:31;30.15;;;16.23;;
54745;SDS011;40640;48.130;11.356;2023-02-13T11:41:36;29.23;;;15.50;;
54745;SDS011;40640;48.130;11.356;2023-02-13T11:45:41;31.88;;;16.77;;
54745;SDS011;40640;48.130;11.356;2023-02-13T11:49:45;29.17;;;16.77;;
54745;SDS011;40640;48.130;11.356;2023-02-13T11:53:51;32.53;;;17.17;;
54745;SDS011;40640;48.130;11.356;2023-02-13T11:57:59;35.22;;;16.48;;
54745;SDS011;40640;48.130;11.356;2023-02-13T12:02:11;27.63;;;16.05;;
54745;SDS011;40640;48.130;11.356;2023-02-13T12:06:16;31.67;;;17.05;;
54745;SDS011;40640;48.130;11.356;2023-02-13T12:10:21;36.45;;;18.23;;
54745;SDS011;40640;48.130;11.356;2023-02-13T12:14:26;34.70;;;18.55;;
54745;SDS011;40640;48.130;11.356;2023-02-13T12:18:33;33.05;;;17.27;;
54745;SDS011;40640;48.130;11.356;2023-02-13T12:22:43;34.83;;;17.80;;
54745;SDS011;40640;48.130;11.356;2023-02-13T12:26:57;32.60;;;16.90;;
54745;SDS011;40640;48.130;11.356;2023-02-13T12:31:19;37.55;;;18.80;;
54745;SDS011;40640;48.130;11.356;2023-02-13T12:35:40;42.65;;;19.92;;
54745;SDS011;40640;48.130;11.356;2023-02-13T12:39:56;36.40;;;20.08;;
54745;SDS011;40640;48.130;11.356;2023-02-13T12:44:27;43.13;;;20.30;;
54745;SDS011;40640;48.130;11.356;2023-02-13T12:48:51;35.92;;;19.05;;
54745;SDS011;40640;48.130;11.356;2023-02-13T12:53:08;37.97;;;20.27;;
54745;SDS011;40640;48.130;11.356;2023-02-13T12:57:23;38.03;;;20.48;;
54745;SDS011;40640;48.130;11.356;2023-02-13T13:06:20;36.38;;;20.20;;
54745;SDS011;40640;48.130;11.356;2023-02-13T13:14:53;39.05;;;20.42;;
54745;SDS011;40640;48.130;11.356;2023-02-13T13:19:02;45.33;;;22.98;;
54745;SDS011;40640;48.130;11.356;2023-02-13T13:23:14;38.80;;;20.50;;
54745;SDS011;40640;48.130;11.356;2023-02-13T13:27:22;42.97;;;20.15;;
54745;SDS011;40640;48.130;11.356;2023-02-13T13:31:27;34.65;;;19.95;;
54745;SDS011;40640;48.130;11.356;2023-02-13T13:35:32;39.28;;;21.30;;
54745;SDS011;40640;48.130;11.356;2023-02-13T13:39:49;41.63;;;20.90;;
54745;SDS011;40640;48.130;11.356;2023-02-13T13:44:04;39.40;;;21.30;;
54745;SDS011;40640;48.130;11.356;2023-02-13T13:53:07;44.65;;;21.27;;
54745;SDS011;40640;48.130;11.356;2023-02-13T13:57:13;46.00;;;20.75;;
54745;SDS011;40640;48.130;11.356;2023-02-13T14:01:17;44.58;;;21.20;;
54745;SDS011;40640;48.130;11.356;2023-02-13T14:05:26;38.03;;;20.92;;
54745;SDS011;40640;48.130;11.356;2023-02-13T14:09:37;35.97;;;18.27;;
54745;SDS011;40640;48.130;11.356;2023-02-13T14:13:43;40.03;;;18.20;;
54745;SDS011;40640;48.130;11.356;2023-02-13T14:17:48;37.38;;;17.98;;
54745;SDS011;40640;48.130;11.356;2023-02-13T14:26:36;32.20;;;15.73;;
54745;SDS011;40640;48.130;11.356;2023-02-13T14:30:42;32.25;;;16.95;;
54745;SDS011;40640;48.130;11.356;2023-02-13T14:34:55;33.20;;;16.02;;
54745;SDS011;40640;48.130;11.356;2023-02-13T14:39:01;35.17;;;16.48;;
54745;SDS011;40640;48.130;11.356;2023-02-13T14:43:16;24.98;;;15.52;;
54745;SDS011;40640;48.130;11.356;2023-02-13T14:47:34;33.25;;;16.73;;
54745;SDS011;40640;48.130;11.356;2023-02-13T14:51:44;28.95;;;16.27;;
54745;SDS011;40640;48.130;11.356;2023-02-13T14:59:56;33.00;;;15.40;;
54745;SDS011;40640;48.130;11.356;2023-02-13T15:04:04;29.30;;;15.52;;
54745;SDS011;40640;48.130;11.356;2023-02-13T15:08:14;29.85;;;15.77;;
54745;SDS011;40640;48.130;11.356;2023-02-13T15:12:24;32.83;;;14.93;;
54745;SDS011;40640;48.130;11.356;2023-02-13T15:16:28;37.63;;;17.02;;
54745;SDS011;40640;48.130;11.356;2023-02-13T15:20:33;27.77;;;14.90;;
54745;SDS011;40640;48.130;11.356;2023-02-13T15:28:56;24.90;;;13.50;;
54745;SDS011;40640;48.130;11.356;2023-02-13T15:33:01;27.67;;;14.50;;
54745;SDS011;40640;48.130;11.356;2023-02-13T15:37:17;27.65;;;14.13;;
54745;SDS011;40640;48.130;11.356;2023-02-13T15:41:22;24.05;;;14.52;;
54745;SDS011;40640;48.130;11.356;2023-02-13T15:45:35;37.30;;;15.60;;
54745;SDS011;40640;48.130;11.356;2023-02-13T15:49:38;28.48;;;15.10;;
54745;SDS011;40640;48.130;11.356;2023-02-13T15:53:50;28.88;;;15.82;;
54745;SDS011;40640;48.130;11.356;2023-02-13T15:57:54;28.98;;;16.33;;
54745;SDS011;40640;48.130;11.356;2023-02-13T16:01:59;34.70;;;16.38;;
54745;SDS011;40640;48.130;11.356;2023-02-13T16:06:03;30.60;;;15.85;;
54745;SDS011;40640;48.130;11.356;2023-02-13T16:10:16;29.58;;;14.40;;
54745;SDS011;40640;48.130;11.356;2023-02-13T16:14:20;26.67;;;14.93;;
54745;SDS011;40640;48.130;11.356;2023-02-13T16:18:25;31.08;;;15.18;;
54745;SDS011;40640;48.130;11.356;2023-02-13T16:22:29;30.38;;;15.50;;
54745;SDS011;40640;48.130;11.356;2023-02-13T16:26:36;33.30;;;16.20;;
54745;SDS011;40640;48.130;11.356;2023-02-13T16:30:43;29.95;;;15.52;;
54745;SDS011;40640;48.130;11.356;2023-02-13T16:34:47;35.88;;;15.25;;
54745;SDS011;40640;48.130;11.356;2023-02-13T16:38:51;30.40;;;14.32;;
54745;SDS011;40640;48.130;11.356;2023-02-13T16:47:32;29.17;;;14.43;;
54745;SDS011;40640;48.130;11.356;2023-02-13T16:51:42;29.00;;;15.10;;
54745;SDS011;40640;48.130;11.356;2023-02-13T16:55:55;30.05;;;15.48;;
54745;SDS011;40640;48.130;11.356;2023-02-13T17:00:04;34.60;;;16.02;;
54745;SDS011;40640;48.130;11.356;2023-02-13T17:04:14;57.15;;;15.93;;
54745;SDS011;40640;48.130;11.356;2023-02-13T17:08:22;30.35;;;16.60;;
54745;SDS011;40640;48.130;11.356;2023-02-13T17:12:25;35.80;;;15.73;;
54745;SDS011;40640;48.130;11.356;2023-02-13T17:16:29;33.75;;;16.45;;
54745;SDS011;40640;48.130;11.356;2023-02-13T17:20:33;31.27;;;15.95;;
54745;SDS011;40640;48.130;11.356;2023-02-13T17:24:37;33.80;;;15.93;;
54745;SDS011;40640;48.130;11.356;2023-02-13T17:28:39;30.73;;;16.52;;
54745;SDS011;40640;48.130;11.356;2023-02-13T17:32:43;29.80;;;16.08;;
54745;SDS011;40640;48.130;11.356;2023-02-13T17:36:48;34.22;;;16.95;;
54745;SDS011;40640;48.130;11.356;2023-02-13T17:40:50;32.90;;;16.10;;
54745;SDS011;40640;48.130;11.356;2023-02-13T17:44:54;33.67;;;17.13;;
54745;SDS011;40640;48.130;11.356;2023-02-13T17:48:58;31.98;;;16.88;;
54745;SDS011;40640;48.130;11.356;2023-02-13T17:53:03;31.23;;;16.10;;
54745;SDS011;40640;48.130;11.356;2023-02-13T17:57:08;33.70;;;17.13;;
54745;SDS011;40640;48.130;11.356;2023-02-13T18:01:11;36.65;;;16.88;;
54745;SDS011;40640;48.130;11.356;2023-02-13T18:05:14;32.80;;;16.52;;
54745;SDS011;40640;48.130;11.356;2023-02-13T18:09:20;36.05;;;17.08;;
54745;SDS011;40640;48.130;11.356;2023-02-13T18:13:23;36.67;;;16.65;;
54745;SDS011;40640;48.130;11.356;2023-02-13T18:17:26;40.33;;;19.15;;
54745;SDS011;40640;48.130;11.356;2023-02-13T18:21:28;37.22;;;17.88;;
54745;SDS011;40640;48.130;11.356;2023-02-13T18:25:33;38.47;;;18.67;;
54745;SDS011;40640;48.130;11.356;2023-02-13T18:29:37;47.15;;;20.08;;
54745;SDS011;40640;48.130;11.356;2023-02-13T18:33:40;41.50;;;18.60;;
54745;SDS011;40640;48.130;11.356;2023-02-13T18:37:43;35.80;;;17.13;;
54745;SDS011;40640;48.130;11.356;2023-02-13T18:41:47;41.53;;;18.00;;
54745;SDS011;40640;48.130;11.356;2023-02-13T18:45:50;43.35;;;21.20;;
54745;SDS011;40640;48.130;11.356;2023-02-13T18:49:53;45.15;;;22.00;;
54745;SDS011;40640;48.130;11.356;2023-02-13T18:53:56;49.67;;;23.15;;
54745;SDS011;40640;48.130;11.356;2023-02-13T18:58:00;48.63;;;21.98;;
54745;SDS011;40640;48.130;11.356;2023-02-13T19:02:03;49.35;;;21.85;;
54745;SDS011;40640;48.130;11.356;2023-02-13T19:06:07;48.63;;;21.90;;
54745;SDS011;40640;48.130;11.356;2023-02-13T19:10:11;49.47;;;22.75;;
54745;SDS011;40640;48.130;11.356;2023-02-13T19:14:16;44.78;;;21.83;;
54745;SDS011;40640;48.130;11.356;2023-02-13T19:18:19;44.78;;;20.33;;
54745;SDS011;40640;48.130;11.356;2023-02-13T19:22:22;44.17;;;21.60;;
54745;SDS011;40640;48.130;11.356;2023-02-13T19:26:25;51.22;;;23.00;;
54745;SDS011;40640;48.130;11.356;2023-02-13T19:30:30;47.83;;;22.27;;
54745;SDS011;40640;48.130;11.356;2023-02-13T19:34:33;52.67;;;23.00;;
54745;SDS011;40640;48.130;11.356;2023-02-13T19:38:36;55.22;;;22.17;;
54745;SDS011;40640;48.130;11.356;2023-02-13T19:42:39;55.45;;;23.80;;
54745;SDS011;40640;48.130;11.356;2023-02-13T19:46:43;56.83;;;23.30;;
54745;SDS011;40640;48.130;11.356;2023-02-13T19:50:46;56.25;;;24.45;;
54745;SDS011;40640;48.130;11.356;2023-02-13T19:54:49;55.63;;;23.33;;
54745;SDS011;40640;48.130;11.356;2023-02-13T19:58:54;58.60;;;25.33;;
54745;SDS011;40640;48.130;11.356;2023-02-13T20:03:02;63.63;;;24.70;;
54745;SDS011;40640;48.130;11.356;2023-02-13T20:07:05;57.03;;;23.83;;
54745;SDS011;40640;48.130;11.356;2023-02-13T20:11:09;58.72;;;25.92;;
54745;SDS011;40640;48.130;11.356;2023-02-13T20:15:12;59.75;;;26.25;;
54745;SDS011;40640;48.130;11.356;2023-02-13T20:19:17;55.60;;;24.20;;
54745;SDS011;40640;48.130;11.356;2023-02-13T20:23:19;54.00;;;24.67;;
54745;SDS011;40640;48.130;11.356;2023-02-13T20:27:22;56.58;;;25.92;;
54745;SDS011;40640;48.130;11.356;2023-02-13T20:31:25;69.50;;;26.80;;
54745;SDS011;40640;48.130;11.356;2023-02-13T20:35:32;63.87;;;28.03;;
54745;SDS011;40640;48.130;11.356;2023-02-13T20:39:34;79.68;;;27.48;;
54745;SDS011;40640;48.130;11.356;2023-02-13T20:43:37;67.80;;;28.90;;
54745;SDS011;40640;48.130;11.356;2023-02-13T20:47:40;63.20;;;28.17;;
54745;SDS011;40640;48.130;11.356;2023-02-13T20:51:44;67.82;;;27.77;;
54745;SDS011;40640;48.130;11.356;2023-02-13T20:55:47;112.15;;;28.08;;
54745;SDS011;40640;48.130;11.356;2023-02-13T20:59:50;94.00;;;25.67;;
54745;SDS011;40640;48.130;11.356;2023-02-13T21:03:54;224.50;;;28.20;;
54745;SDS011;40640;48.130;11.356;2023-02-13T21:07:59;99.85;;;26.25;;
54745;SDS011;40640;48.130;11.356;2023-02-13T21:12:02;88.95;;;26.38;;
54745;SDS011;40640;48.130;11.356;2023-02-13T21:16:06;79.80;;;24.73;;
54745;SDS011;40640;48.130;11.356;2023-02-13T21:20:11;75.90;;;25.00;;
54745;SDS011;40640;48.130;11.356;2023-02-13T21:24:16;64.95;;;24.15;;
54745;SDS011;40640;48.130;11.356;2023-02-13T21:28:20;59.92;;;23.40;;
54745;SDS011;40640;48.130;11.356;2023-02-13T21:32:23;109.22;;;23.90;;
54745;SDS011;40640;48.130;11.356;2023-02-13T21:36:26;102.82;;;25.58;;
54745;SDS011;40640;48.130;11.356;2023-02-13T21:40:31;174.27;;;24.77;;
54745;SDS011;40640;48.130;11.356;2023-02-13T21:44:34;149.70;;;24.15;;
54745;SDS011;40640;48.130;11.356;2023-02-13T21:48:37;123.00;;;23.65;;
54745;SDS011;40640;48.130;11.356;2023-02-13T21:52:40;72.07;;;22.52;;
54745;SDS011;40640;48.130;11.356;2023-02-13T21:56:44;57.13;;;23.20;;
54745;SDS011;40640;48.130;11.356;2023-02-13T22:00:47;63.05;;;21.05;;
54745;SDS011;40640;48.130;11.356;2023-02-13T22:04:50;58.85;;;23.05;;
54745;SDS011;40640;48.130;11.356;2023-02-13T22:08:56;74.72;;;22.90;;
54745;SDS011;40640;48.130;11.356;2023-02-13T22:13:01;101.03;;;24.65;;
54745;SDS011;40640;48.130;11.356;2023-02-13T22:17:04;76.30;;;23.77;;
54745;SDS011;40640;48.130;11.356;2023-02-13T22:21:07;130.80;;;25.35;;
54745;SDS011;40640;48.130;11.356;2023-02-13T22:29:17;106.05;;;23.48;;
54745;SDS011;40640;48.130;11.356;2023-02-13T22:33:23;78.78;;;22.08;;
54745;SDS011;40640;48.130;11.356;2023-02-13T22:37:26;87.10;;;22.77;;
54745;SDS011;40640;48.130;11.356;2023-02-13T22:41:28;127.15;;;22.42;;
54745;SDS011;40640;48.130;11.356;2023-02-13T22:45:34;165.48;;;23.98;;
54745;SDS011;40640;48.130;11.356;2023-02-13T22:49:37;132.90;;;24.42;;
54745;SDS011;40640;48.130;11.356;2023-02-13T22:53:39;88.65;;;23.50;;
54745;SDS011;40640;48.130;11.356;2023-02-13T22:57:42;106.97;;;23.73;;
54745;SDS011;40640;48.130;11.356;2023-02-13T23:01:48;63.88;;;20.58;;
54745;SDS011;40640;48.130;11.356;2023-02-13T23:05:51;100.43;;;24.42;;
54745;SDS011;40640;48.130;11.356;2023-02-13T23:09:55;105.38;;;24.85;;
54745;SDS011;40640;48.130;11.356;2023-02-13T23:13:57;80.50;;;22.60;;
54745;SDS011;40640;48.130;11.356;2023-02-13T23:18:02;66.68;;;23.67;;
54745;SDS011;40640;48.130;11.356;2023-02-13T23:22:14;89.40;;;37.20;;
54745;SDS011;40640;48.130;11.356;2023-02-13T23:26:17;86.25;;;26.48;;
54745;SDS011;40640;48.130;11.356;2023-02-13T23:30:20;58.65;;;21.10;;
54745;SDS011;40640;48.130;11.356;2023-02-13T23:34:25;111.65;;;21.80;;
54745;SDS011;40640;48.130;11.356;2023-02-13T23:38:28;63.53;;;22.20;;
54745;SDS011;40640;48.130;11.356;2023-02-13T23:42:31;64.60;;;20.80;;
54745;SDS011;40640;48.130;11.356;2023-02-13T23:46:34;71.20;;;21.20;;
54745;SDS011;40640;48.130;11.356;2023-02-13T23:50:38;98.53;;;20.85;;
54745;SDS011;40640;48.130;11.356;2023-02-13T23:54:41;47.65;;;22.38;;
54745;SDS011;40640;48.130;11.356;2023-02-13T23:58:44;62.97;;;20.35;;
